createdAt,value
2019-02-17T00:00:51.193Z,1016.05
2019-02-17T00:01:51.153Z,1016.08
2019-02-17T00:02:51.122Z,1016.06
2019-02-17T00:03:51.084Z,1016.04
2019-02-17T00:04:51.044Z,1016.07
2019-02-17T00:05:51.022Z,1016.06
2019-02-17T00:06:50.982Z,1016.07
2019-02-17T00:07:50.942Z,1016.06
2019-02-17T00:08:50.907Z,1016.08
2019-02-17T00:09:50.872Z,1016.11
2019-02-17T00:10:50.832Z,1016.08
2019-02-17T00:11:50.798Z,1016.07
2019-02-17T00:12:50.761Z,1016.07
2019-02-17T00:13:50.720Z,1016.07
2019-02-17T00:14:50.685Z,1016.06
2019-02-17T00:15:50.665Z,1016.05
2019-02-17T00:16:50.613Z,1016.04
2019-02-17T00:17:50.570Z,1016.06
2019-02-17T00:18:50.549Z,1016.04
2019-02-17T00:19:50.513Z,1016.04
2019-02-17T00:20:50.460Z,1016.03
2019-02-17T00:21:50.430Z,1016.03
2019-02-17T00:22:50.405Z,1016.00
2019-02-17T00:23:50.359Z,1016.05
2019-02-17T00:24:50.316Z,1016.02
2019-02-17T00:25:50.287Z,1016.02
2019-02-17T00:26:50.255Z,1015.97
2019-02-17T00:27:50.207Z,1016.01
2019-02-17T00:28:59.238Z,1015.95
2019-02-17T00:29:50.139Z,1015.98
2019-02-17T00:30:50.101Z,1015.95
2019-02-17T00:31:50.061Z,1016.00
2019-02-17T00:32:50.029Z,1015.97
2019-02-17T00:33:49.996Z,1015.97
2019-02-17T00:34:49.966Z,1015.95
2019-02-17T00:35:49.924Z,1015.93
2019-02-17T00:36:49.879Z,1015.94
2019-02-17T00:37:49.845Z,1015.93
2019-02-17T00:38:49.809Z,1015.89
2019-02-17T00:39:49.778Z,1015.87
2019-02-17T00:40:49.739Z,1015.88
2019-02-17T00:41:49.698Z,1015.88
2019-02-17T00:42:49.666Z,1015.85
2019-02-17T00:43:49.631Z,1015.81
2019-02-17T00:44:49.587Z,1015.81
2019-02-17T00:45:49.580Z,1015.82
2019-02-17T00:46:49.511Z,1015.81
2019-02-17T00:47:49.484Z,1015.86
2019-02-17T00:48:49.444Z,1015.85
2019-02-17T00:49:49.405Z,1015.84
2019-02-17T00:50:49.370Z,1015.83
2019-02-17T00:51:49.336Z,1015.79
2019-02-17T00:52:49.289Z,1015.80
2019-02-17T00:53:49.261Z,1015.81
2019-02-17T00:54:49.224Z,1015.79
2019-02-17T00:55:49.187Z,1015.76
2019-02-17T00:56:49.152Z,1015.77
2019-02-17T00:57:49.112Z,1015.73
2019-02-17T00:58:49.075Z,1015.73
2019-02-17T00:59:49.034Z,1015.74
2019-02-17T01:00:49.000Z,1015.73
2019-02-17T01:01:48.964Z,1015.73
2019-02-17T01:02:48.949Z,1015.72
2019-02-17T01:03:48.895Z,1015.73
2019-02-17T01:04:48.864Z,1015.76
2019-02-17T01:05:48.814Z,1015.75
2019-02-17T01:06:48.794Z,1015.70
2019-02-17T01:07:48.750Z,1015.74
2019-02-17T01:08:48.714Z,1015.71
2019-02-17T01:09:48.676Z,1015.73
2019-02-17T01:10:48.638Z,1015.70
2019-02-17T01:11:48.601Z,1015.68
2019-02-17T01:12:48.566Z,1015.73
2019-02-17T01:13:48.530Z,1015.72
2019-02-17T01:14:48.500Z,1015.71
2019-02-17T01:15:48.453Z,1015.69
2019-02-17T01:16:48.415Z,1015.71
2019-02-17T01:17:48.376Z,1015.70
2019-02-17T01:18:48.346Z,1015.69
2019-02-17T01:19:48.301Z,1015.71
2019-02-17T01:20:48.272Z,1015.66
2019-02-17T01:21:48.224Z,1015.69
2019-02-17T01:22:48.210Z,1015.69
2019-02-17T01:23:48.154Z,1015.66
2019-02-17T01:24:48.118Z,1015.67
2019-02-17T01:25:48.084Z,1015.69
2019-02-17T01:26:48.046Z,1015.70
2019-02-17T01:27:48.020Z,1015.69
2019-02-17T01:28:47.980Z,1015.70
2019-02-17T01:29:47.943Z,1015.73
2019-02-17T01:30:47.899Z,1015.72
2019-02-17T01:31:47.866Z,1015.72
2019-02-17T01:32:47.829Z,1015.67
2019-02-17T01:33:47.785Z,1015.70
2019-02-17T01:34:47.763Z,1015.64
2019-02-17T01:35:47.718Z,1015.68
2019-02-17T01:36:47.675Z,1015.64
2019-02-17T01:37:47.642Z,1015.65
2019-02-17T01:38:47.615Z,1015.63
2019-02-17T01:39:47.575Z,1015.64
2019-02-17T01:40:47.526Z,1015.61
2019-02-17T01:41:47.495Z,1015.60
2019-02-17T01:42:47.459Z,1015.61
2019-02-17T01:43:47.419Z,1015.55
2019-02-17T01:44:47.388Z,1015.53
2019-02-17T01:45:47.344Z,1015.54
2019-02-17T01:46:47.327Z,1015.56
2019-02-17T01:47:47.276Z,1015.54
2019-02-17T01:48:47.231Z,1015.54
2019-02-17T01:49:47.193Z,1015.51
2019-02-17T01:50:47.153Z,1015.54
2019-02-17T01:51:47.123Z,1015.52
2019-02-17T01:52:47.090Z,1015.50
2019-02-17T01:53:47.046Z,1015.54
2019-02-17T01:54:47.015Z,1015.53
2019-02-17T01:55:47.112Z,1015.50
2019-02-17T01:56:46.939Z,1015.48
2019-02-17T01:57:46.903Z,1015.49
2019-02-17T01:58:46.853Z,1015.49
2019-02-17T01:59:46.828Z,1015.46
2019-02-17T02:00:46.799Z,1015.45
2019-02-17T02:01:46.756Z,1015.42
2019-02-17T02:02:46.718Z,1015.46
2019-02-17T02:03:46.689Z,1015.42
2019-02-17T02:04:46.641Z,1015.41
2019-02-17T02:05:46.596Z,1015.44
2019-02-17T02:06:46.576Z,1015.44
2019-02-17T02:07:46.525Z,1015.41
2019-02-17T02:08:46.495Z,1015.39
2019-02-17T02:09:46.460Z,1015.38
2019-02-17T02:10:46.430Z,1015.35
2019-02-17T02:11:46.370Z,1015.33
2019-02-17T02:12:46.347Z,1015.30
2019-02-17T02:13:46.310Z,1015.29
2019-02-17T02:14:46.266Z,1015.27
2019-02-17T02:15:46.238Z,1015.27
2019-02-17T02:16:46.194Z,1015.20
2019-02-17T02:17:46.163Z,1015.25
2019-02-17T02:18:46.121Z,1015.18
2019-02-17T02:19:46.082Z,1015.17
2019-02-17T02:20:46.050Z,1015.24
2019-02-17T02:21:46.009Z,1015.23
2019-02-17T02:22:45.974Z,1015.18
2019-02-17T02:23:45.934Z,1015.20
2019-02-17T02:24:45.902Z,1015.16
2019-02-17T02:25:45.865Z,1015.15
2019-02-17T02:26:45.821Z,1015.15
2019-02-17T02:27:45.784Z,1015.16
2019-02-17T02:28:45.754Z,1015.16
2019-02-17T02:29:45.719Z,1015.18
2019-02-17T02:30:45.675Z,1015.18
2019-02-17T02:31:45.642Z,1015.17
2019-02-17T02:32:45.597Z,1015.17
2019-02-17T02:33:45.561Z,1015.19
2019-02-17T02:34:45.528Z,1015.16
2019-02-17T02:35:45.494Z,1015.14
2019-02-17T02:36:45.462Z,1015.11
2019-02-17T02:37:45.413Z,1015.10
2019-02-17T02:38:45.376Z,1015.12
2019-02-17T02:39:45.338Z,1015.10
2019-02-17T02:40:45.310Z,1015.13
2019-02-17T02:41:45.269Z,1015.11
2019-02-17T02:42:45.229Z,1015.10
2019-02-17T02:43:45.191Z,1015.10
2019-02-17T02:44:45.160Z,1015.08
2019-02-17T02:45:45.125Z,1015.08
2019-02-17T02:46:45.076Z,1015.05
2019-02-17T02:47:45.044Z,1015.03
2019-02-17T02:48:45.004Z,1015.03
2019-02-17T02:49:44.969Z,1015.07
2019-02-17T02:50:44.930Z,1015.07
2019-02-17T02:51:44.896Z,1015.04
2019-02-17T02:52:44.855Z,1015.06
2019-02-17T02:53:44.824Z,1015.05
2019-02-17T02:54:44.785Z,1015.02
2019-02-17T02:55:44.744Z,1015.03
2019-02-17T02:56:44.705Z,1015.01
2019-02-17T02:57:44.667Z,1014.98
2019-02-17T02:58:44.635Z,1015.02
2019-02-17T02:59:52.222Z,1015.00
2019-02-17T03:00:44.556Z,1014.98
2019-02-17T03:01:44.524Z,1014.94
2019-02-17T03:02:44.481Z,1014.94
2019-02-17T03:03:46.088Z,1014.90
2019-02-17T03:04:44.408Z,1014.92
2019-02-17T03:05:44.369Z,1014.91
2019-02-17T03:06:44.343Z,1014.90
2019-02-17T03:07:44.307Z,1014.88
2019-02-17T03:08:44.259Z,1014.88
2019-02-17T03:09:44.220Z,1014.90
2019-02-17T03:10:44.179Z,1014.92
2019-02-17T03:11:44.154Z,1014.91
2019-02-17T03:12:44.107Z,1014.90
2019-02-17T03:13:44.074Z,1014.92
2019-02-17T03:14:44.031Z,1014.89
2019-02-17T03:15:43.998Z,1014.90
2019-02-17T03:16:43.960Z,1014.88
2019-02-17T03:17:43.921Z,1014.89
2019-02-17T03:18:43.875Z,1014.87
2019-02-17T03:19:43.861Z,1014.86
2019-02-17T03:20:43.802Z,1014.83
2019-02-17T03:21:43.772Z,1014.82
2019-02-17T03:22:43.741Z,1014.82
2019-02-17T03:23:43.707Z,1014.82
2019-02-17T03:24:43.656Z,1014.87
2019-02-17T03:25:45.331Z,1014.82
2019-02-17T03:26:43.589Z,1014.86
2019-02-17T03:27:43.542Z,1014.80
2019-02-17T03:28:43.513Z,1014.81
2019-02-17T03:29:43.472Z,1014.83
2019-02-17T03:30:43.439Z,1014.83
2019-02-17T03:31:43.403Z,1014.82
2019-02-17T03:32:43.356Z,1014.80
2019-02-17T03:33:43.321Z,1014.80
2019-02-17T03:34:43.282Z,1014.83
2019-02-17T03:35:43.244Z,1014.80
2019-02-17T03:36:43.207Z,1014.77
2019-02-17T03:37:43.162Z,1014.76
2019-02-17T03:38:43.132Z,1014.76
2019-02-17T03:39:43.099Z,1014.75
2019-02-17T03:40:43.062Z,1014.73
2019-02-17T03:41:43.012Z,1014.74
2019-02-17T03:42:42.991Z,1014.76
2019-02-17T03:43:42.950Z,1014.74
2019-02-17T03:44:42.905Z,1014.71
2019-02-17T03:45:42.862Z,1014.73
2019-02-17T03:46:42.832Z,1014.76
2019-02-17T03:47:42.797Z,1014.72
2019-02-17T03:48:42.753Z,1014.71
2019-02-17T03:49:42.711Z,1014.73
2019-02-17T03:50:42.687Z,1014.70
2019-02-17T03:51:42.644Z,1014.71
2019-02-17T03:52:42.614Z,1014.72
2019-02-17T03:53:42.562Z,1014.73
2019-02-17T03:54:42.533Z,1014.72
2019-02-17T03:55:42.501Z,1014.70
2019-02-17T03:56:42.467Z,1014.69
2019-02-17T03:57:42.424Z,1014.69
2019-02-17T03:58:42.383Z,1014.72
2019-02-17T03:59:42.339Z,1014.71
2019-02-17T04:00:42.308Z,1014.73
2019-02-17T04:01:42.278Z,1014.69
2019-02-17T04:02:42.228Z,1014.70
2019-02-17T04:03:42.192Z,1014.65
2019-02-17T04:04:42.159Z,1014.68
2019-02-17T04:05:42.116Z,1014.64
2019-02-17T04:06:42.076Z,1014.65
2019-02-17T04:07:42.034Z,1014.69
2019-02-17T04:08:42.003Z,1014.65
2019-02-17T04:09:41.966Z,1014.66
2019-02-17T04:10:41.926Z,1014.60
2019-02-17T04:11:41.882Z,1014.63
2019-02-17T04:12:41.855Z,1014.66
2019-02-17T04:13:41.814Z,1014.69
2019-02-17T04:14:41.767Z,1014.69
2019-02-17T04:15:41.743Z,1014.66
2019-02-17T04:16:41.703Z,1014.67
2019-02-17T04:17:41.662Z,1014.67
2019-02-17T04:18:41.626Z,1014.64
2019-02-17T04:19:41.582Z,1014.66
2019-02-17T04:20:41.550Z,1014.65
2019-02-17T04:21:41.512Z,1014.61
2019-02-17T04:22:41.480Z,1014.58
2019-02-17T04:23:41.430Z,1014.57
2019-02-17T04:24:41.394Z,1014.59
2019-02-17T04:25:41.368Z,1014.58
2019-02-17T04:26:41.318Z,1014.55
2019-02-17T04:27:41.283Z,1014.52
2019-02-17T04:28:41.279Z,1014.45
2019-02-17T04:29:41.215Z,1014.43
2019-02-17T04:30:41.169Z,1014.39
2019-02-17T04:31:41.140Z,1014.43
2019-02-17T04:32:41.095Z,1014.40
2019-02-17T04:33:41.059Z,1014.44
2019-02-17T04:34:41.018Z,1014.45
2019-02-17T04:35:40.978Z,1014.47
2019-02-17T04:36:40.947Z,1014.46
2019-02-17T04:37:40.910Z,1014.43
2019-02-17T04:38:40.868Z,1014.40
2019-02-17T04:39:40.829Z,1014.41
2019-02-17T04:40:40.794Z,1014.38
2019-02-17T04:41:40.760Z,1014.40
2019-02-17T04:42:40.720Z,1014.45
2019-02-17T04:43:40.685Z,1014.39
2019-02-17T04:44:40.644Z,1014.39
2019-02-17T04:45:40.624Z,1014.41
2019-02-17T04:46:40.568Z,1014.39
2019-02-17T04:47:40.524Z,1014.34
2019-02-17T04:48:40.491Z,1014.38
2019-02-17T04:49:40.450Z,1014.35
2019-02-17T04:50:40.413Z,1014.35
2019-02-17T04:51:40.432Z,1014.33
2019-02-17T04:52:40.335Z,1014.35
2019-02-17T04:53:40.301Z,1014.36
2019-02-17T04:54:40.255Z,1014.34
2019-02-17T04:55:40.230Z,1014.29
2019-02-17T04:56:40.180Z,1014.32
2019-02-17T04:57:40.146Z,1014.30
2019-02-17T04:58:40.109Z,1014.31
2019-02-17T04:59:40.071Z,1014.33
2019-02-17T05:00:40.709Z,1014.33
2019-02-17T05:01:39.990Z,1014.35
2019-02-17T05:02:39.966Z,1014.32
2019-02-17T05:03:39.925Z,1014.31
2019-02-17T05:04:39.883Z,1014.35
2019-02-17T05:05:39.843Z,1014.33
2019-02-17T05:06:40.855Z,1014.30
2019-02-17T05:07:39.772Z,1014.32
2019-02-17T05:08:39.732Z,1014.31
2019-02-17T05:09:39.692Z,1014.33
2019-02-17T05:10:39.659Z,1014.28
2019-02-17T05:11:39.616Z,1014.32
2019-02-17T05:12:39.577Z,1014.28
2019-02-17T05:13:39.566Z,1014.31
2019-02-17T05:14:39.503Z,1014.25
2019-02-17T05:15:39.467Z,1014.27
2019-02-17T05:16:39.428Z,1014.25
2019-02-17T05:17:39.392Z,1014.27
2019-02-17T05:18:39.352Z,1014.24
2019-02-17T05:19:39.317Z,1014.22
2019-02-17T05:20:39.283Z,1014.24
2019-02-17T05:21:39.243Z,1014.24
2019-02-17T05:22:39.577Z,1014.28
2019-02-17T05:23:39.180Z,1014.22
2019-02-17T05:24:39.118Z,1014.23
2019-02-17T05:25:39.088Z,1014.24
2019-02-17T05:26:39.041Z,1014.21
2019-02-17T05:27:39.023Z,1014.24
2019-02-17T05:28:38.976Z,1014.23
2019-02-17T05:29:38.934Z,1014.24
2019-02-17T05:30:38.898Z,1014.23
2019-02-17T05:31:38.859Z,1014.17
2019-02-17T05:32:38.828Z,1014.23
2019-02-17T05:33:38.801Z,1014.19
2019-02-17T05:34:38.749Z,1014.22
2019-02-17T05:35:38.698Z,1014.23
2019-02-17T05:36:38.671Z,1014.23
2019-02-17T05:37:38.637Z,1014.21
2019-02-17T05:38:38.601Z,1014.23
2019-02-17T05:39:38.552Z,1014.20
2019-02-17T05:40:38.530Z,1014.18
2019-02-17T05:41:38.479Z,1014.19
2019-02-17T05:42:38.448Z,1014.20
2019-02-17T05:43:38.403Z,1014.15
2019-02-17T05:44:38.366Z,1014.13
2019-02-17T05:45:38.332Z,1014.15
2019-02-17T05:46:38.287Z,1014.12
2019-02-17T05:47:38.247Z,1014.12
2019-02-17T05:48:38.215Z,1014.13
2019-02-17T05:49:38.173Z,1014.07
2019-02-17T05:50:38.147Z,1014.06
2019-02-17T05:51:38.098Z,1014.01
2019-02-17T05:52:38.068Z,1014.04
2019-02-17T05:53:38.027Z,1014.04
2019-02-17T05:54:38.002Z,1014.03
2019-02-17T05:55:37.948Z,1014.02
2019-02-17T05:56:37.914Z,1014.06
2019-02-17T05:57:37.879Z,1014.05
2019-02-17T05:58:37.854Z,1014.04
2019-02-17T05:59:37.807Z,1014.01
2019-02-17T06:00:37.763Z,1014.03
2019-02-17T06:01:37.723Z,1014.03
2019-02-17T06:02:37.689Z,1014.02
2019-02-17T06:03:37.663Z,1014.05
2019-02-17T06:04:37.614Z,1014.04
2019-02-17T06:05:37.573Z,1014.02
2019-02-17T06:06:37.539Z,1014.00
2019-02-17T06:07:37.499Z,1014.00
2019-02-17T06:08:37.458Z,1013.96
2019-02-17T06:09:37.430Z,1014.00
2019-02-17T06:10:37.386Z,1014.01
2019-02-17T06:11:37.353Z,1013.96
2019-02-17T06:12:37.309Z,1014.02
2019-02-17T06:13:37.275Z,1014.04
2019-02-17T06:14:37.247Z,1014.02
2019-02-17T06:15:37.190Z,1014.04
2019-02-17T06:16:37.162Z,1014.07
2019-02-17T06:17:37.119Z,1014.07
2019-02-17T06:18:37.090Z,1014.04
2019-02-17T06:19:37.049Z,1014.07
2019-02-17T06:20:37.020Z,1014.10
2019-02-17T06:21:36.976Z,1014.11
2019-02-17T06:22:36.936Z,1014.09
2019-02-17T06:23:36.890Z,1014.09
2019-02-17T06:24:36.862Z,1014.07
2019-02-17T06:25:36.820Z,1014.09
2019-02-17T06:26:36.788Z,1014.11
2019-02-17T06:27:36.757Z,1014.04
2019-02-17T06:28:36.705Z,1014.04
2019-02-17T06:29:36.679Z,1014.04
2019-02-17T06:30:36.634Z,1014.05
2019-02-17T06:31:36.595Z,1014.07
2019-02-17T06:32:36.551Z,1014.04
2019-02-17T06:33:36.525Z,1014.06
2019-02-17T06:34:36.486Z,1014.05
2019-02-17T06:35:36.442Z,1014.03
2019-02-17T06:36:36.412Z,1014.07
2019-02-17T06:37:36.364Z,1014.07
2019-02-17T06:38:36.327Z,1014.06
2019-02-17T06:39:36.306Z,1014.06
2019-02-17T06:40:36.261Z,1014.06
2019-02-17T06:41:36.218Z,1014.10
2019-02-17T06:42:36.184Z,1014.07
2019-02-17T06:43:36.147Z,1014.12
2019-02-17T06:44:36.102Z,1014.12
2019-02-17T06:45:36.067Z,1014.14
2019-02-17T06:46:36.037Z,1014.12
2019-02-17T06:47:35.999Z,1014.11
2019-02-17T06:48:35.951Z,1014.09
2019-02-17T06:49:35.916Z,1014.12
2019-02-17T06:50:35.881Z,1014.13
2019-02-17T06:51:35.837Z,1014.09
2019-02-17T06:52:35.806Z,1014.09
2019-02-17T06:53:35.777Z,1014.04
2019-02-17T06:54:35.716Z,1014.08
2019-02-17T06:55:35.709Z,1014.08
2019-02-17T06:56:35.662Z,1014.09
2019-02-17T06:57:35.632Z,1014.06
2019-02-17T06:58:35.579Z,1014.07
2019-02-17T06:59:35.553Z,1014.08
2019-02-17T07:00:35.525Z,1014.12
2019-02-17T07:01:35.477Z,1014.10
2019-02-17T07:02:35.437Z,1014.11
2019-02-17T07:03:35.470Z,1014.09
2019-02-17T07:04:35.353Z,1014.11
2019-02-17T07:05:35.344Z,1014.12
2019-02-17T07:06:35.279Z,1014.14
2019-02-17T07:07:35.262Z,1014.10
2019-02-17T07:08:35.198Z,1014.12
2019-02-17T07:09:35.163Z,1014.14
2019-02-17T07:10:35.131Z,1014.14
2019-02-17T07:11:35.095Z,1014.16
2019-02-17T07:12:35.062Z,1014.13
2019-02-17T07:13:35.013Z,1014.13
2019-02-17T07:14:34.984Z,1014.11
2019-02-17T07:15:34.939Z,1014.14
2019-02-17T07:16:34.897Z,1014.15
2019-02-17T07:17:34.861Z,1014.09
2019-02-17T07:18:34.824Z,1014.09
2019-02-17T07:19:34.817Z,1014.10
2019-02-17T07:20:34.747Z,1014.06
2019-02-17T07:21:34.708Z,1014.03
2019-02-17T07:22:34.670Z,1014.04
2019-02-17T07:23:34.642Z,1014.04
2019-02-17T07:24:34.604Z,1014.02
2019-02-17T07:25:34.562Z,1014.00
2019-02-17T07:26:34.519Z,1014.03
2019-02-17T07:27:34.487Z,1014.00
2019-02-17T07:28:34.454Z,1014.01
2019-02-17T07:29:34.418Z,1014.00
2019-02-17T07:30:34.368Z,1014.02
2019-02-17T07:31:35.354Z,1014.04
2019-02-17T07:32:34.312Z,1014.05
2019-02-17T07:33:34.263Z,1014.05
2019-02-17T07:34:34.214Z,1014.06
2019-02-17T07:35:34.189Z,1014.07
2019-02-17T07:36:34.141Z,1014.06
2019-02-17T07:37:34.123Z,1014.06
2019-02-17T07:38:34.070Z,1014.04
2019-02-17T07:39:34.030Z,1014.02
2019-02-17T07:40:34.003Z,1014.05
2019-02-17T07:41:33.966Z,1014.03
2019-02-17T07:42:33.921Z,1014.04
2019-02-17T07:43:33.881Z,1014.09
2019-02-17T07:44:33.849Z,1014.07
2019-02-17T07:45:33.808Z,1014.07
2019-02-17T07:46:33.775Z,1014.06
2019-02-17T07:47:33.742Z,1014.04
2019-02-17T07:48:33.703Z,1014.07
2019-02-17T07:49:33.659Z,1014.10
2019-02-17T07:50:33.629Z,1014.11
2019-02-17T07:51:33.585Z,1014.12
2019-02-17T07:52:34.332Z,1014.07
2019-02-17T07:53:33.514Z,1014.13
2019-02-17T07:54:33.473Z,1014.10
2019-02-17T07:55:33.449Z,1014.08
2019-02-17T07:56:33.401Z,1014.10
2019-02-17T07:57:33.370Z,1014.11
2019-02-17T07:58:33.316Z,1014.07
2019-02-17T07:59:33.291Z,1014.08
2019-02-17T08:00:33.251Z,1014.06
2019-02-17T08:01:33.220Z,1014.09
2019-02-17T08:02:33.179Z,1014.12
2019-02-17T08:03:33.138Z,1014.11
2019-02-17T08:04:33.095Z,1014.07
2019-02-17T08:05:33.066Z,1014.11
2019-02-17T08:06:33.032Z,1014.12
2019-02-17T08:07:32.990Z,1014.08
2019-02-17T08:08:32.957Z,1014.11
2019-02-17T08:09:32.927Z,1014.09
2019-02-17T08:10:32.882Z,1014.09
2019-02-17T08:11:32.842Z,1014.05
2019-02-17T08:12:32.802Z,1014.05
2019-02-17T08:13:32.774Z,1014.02
2019-02-17T08:14:32.732Z,1014.05
2019-02-17T08:15:32.705Z,1014.07
2019-02-17T08:16:32.660Z,1014.02
2019-02-17T08:17:32.626Z,1014.03
2019-02-17T08:18:32.580Z,1014.04
2019-02-17T08:19:32.536Z,1014.01
2019-02-17T08:20:32.518Z,1014.01
2019-02-17T08:21:32.476Z,1014.04
2019-02-17T08:22:32.442Z,1014.04
2019-02-17T08:23:32.408Z,1014.00
2019-02-17T08:24:32.374Z,1014.04
2019-02-17T08:25:32.328Z,1014.01
2019-02-17T08:26:32.290Z,1014.02
2019-02-17T08:27:32.255Z,1014.02
2019-02-17T08:28:32.227Z,1014.01
2019-02-17T08:29:32.185Z,1014.00
2019-02-17T08:30:32.171Z,1013.99
2019-02-17T08:31:32.123Z,1014.02
2019-02-17T08:32:32.071Z,1014.01
2019-02-17T08:33:32.037Z,1014.00
2019-02-17T08:34:32.003Z,1014.00
2019-02-17T08:35:31.968Z,1013.98
2019-02-17T08:36:31.931Z,1013.99
2019-02-17T08:37:31.890Z,1013.99
2019-02-17T08:38:31.857Z,1013.94
2019-02-17T08:39:31.816Z,1013.93
2019-02-17T08:40:31.781Z,1013.93
2019-02-17T08:41:31.758Z,1013.91
2019-02-17T08:42:31.698Z,1013.92
2019-02-17T08:43:31.671Z,1013.90
2019-02-17T08:44:31.643Z,1013.89
2019-02-17T08:45:31.594Z,1013.82
2019-02-17T08:46:31.564Z,1013.85
2019-02-17T08:47:31.527Z,1013.86
2019-02-17T08:48:31.507Z,1013.84
2019-02-17T08:49:31.466Z,1013.83
2019-02-17T08:50:31.429Z,1013.81
2019-02-17T08:51:31.380Z,1013.77
2019-02-17T08:52:31.344Z,1013.77
2019-02-17T08:53:31.317Z,1013.78
2019-02-17T08:54:31.290Z,1013.78
2019-02-17T08:55:31.232Z,1013.78
2019-02-17T08:56:31.204Z,1013.78
2019-02-17T08:57:31.174Z,1013.76
2019-02-17T08:58:31.134Z,1013.75
2019-02-17T08:59:31.094Z,1013.76
2019-02-17T09:00:31.071Z,1013.74
2019-02-17T09:01:31.024Z,1013.72
2019-02-17T09:02:30.995Z,1013.72
2019-02-17T09:03:30.943Z,1013.70
2019-02-17T09:04:30.932Z,1013.70
2019-02-17T09:05:30.893Z,1013.70
2019-02-17T09:06:30.847Z,1013.69
2019-02-17T09:07:30.824Z,1013.68
2019-02-17T09:08:30.774Z,1013.66
2019-02-17T09:09:30.748Z,1013.63
2019-02-17T09:10:30.700Z,1013.67
2019-02-17T09:11:30.679Z,1013.62
2019-02-17T09:12:30.648Z,1013.69
2019-02-17T09:13:30.608Z,1013.70
2019-02-17T09:14:30.560Z,1013.66
2019-02-17T09:15:30.530Z,1013.65
2019-02-17T09:16:30.489Z,1013.67
2019-02-17T09:17:30.469Z,1013.63
2019-02-17T09:18:30.425Z,1013.61
2019-02-17T09:19:30.384Z,1013.62
2019-02-17T09:20:30.355Z,1013.61
2019-02-17T09:21:30.328Z,1013.60
2019-02-17T09:22:30.293Z,1013.59
2019-02-17T09:23:30.250Z,1013.63
2019-02-17T09:24:30.224Z,1013.59
2019-02-17T09:25:30.185Z,1013.55
2019-02-17T09:26:30.150Z,1013.58
2019-02-17T09:27:30.101Z,1013.58
2019-02-17T09:28:30.083Z,1013.57
2019-02-17T09:29:30.041Z,1013.56
2019-02-17T09:30:30.014Z,1013.56
2019-02-17T09:31:29.978Z,1013.54
2019-02-17T09:32:29.949Z,1013.53
2019-02-17T09:33:29.898Z,1013.54
2019-02-17T09:34:29.881Z,1013.52
2019-02-17T09:35:29.843Z,1013.53
2019-02-17T09:36:29.799Z,1013.57
2019-02-17T09:37:29.786Z,1013.55
2019-02-17T09:38:29.736Z,1013.53
2019-02-17T09:39:29.699Z,1013.53
2019-02-17T09:40:29.676Z,1013.55
2019-02-17T09:41:29.644Z,1013.56
2019-02-17T09:42:29.595Z,1013.58
2019-02-17T09:43:29.571Z,1013.60
2019-02-17T09:44:29.525Z,1013.63
2019-02-17T09:45:29.494Z,1013.64
2019-02-17T09:46:29.465Z,1013.60
2019-02-17T09:47:29.427Z,1013.66
2019-02-17T09:48:29.389Z,1013.67
2019-02-17T09:49:29.357Z,1013.62
2019-02-17T09:50:29.327Z,1013.59
2019-02-17T09:51:29.297Z,1013.58
2019-02-17T09:52:29.255Z,1013.63
2019-02-17T09:53:29.211Z,1013.63
2019-02-17T09:54:29.190Z,1013.62
2019-02-17T09:55:29.152Z,1013.65
2019-02-17T09:56:29.129Z,1013.65
2019-02-17T09:57:29.092Z,1013.67
2019-02-17T09:58:29.074Z,1013.72
2019-02-17T09:59:29.020Z,1013.66
2019-02-17T10:00:28.991Z,1013.69
2019-02-17T10:01:28.946Z,1013.79
2019-02-17T10:02:28.927Z,1014.75
2019-02-17T10:03:28.896Z,1015.12
2019-02-17T10:04:28.861Z,1015.34
2019-02-17T10:05:28.816Z,1015.61
2019-02-17T10:06:28.785Z,1015.33
2019-02-17T10:07:28.808Z,1015.40
2019-02-17T10:08:28.733Z,1015.23
2019-02-17T10:09:28.693Z,1015.08
2019-02-17T10:10:28.670Z,1015.10
2019-02-17T10:11:28.627Z,1015.29
2019-02-17T10:12:28.600Z,1015.42
2019-02-17T10:13:28.572Z,1015.53
2019-02-17T10:14:28.541Z,1015.54
2019-02-17T10:15:28.513Z,1015.24
2019-02-17T10:16:28.488Z,1015.23
2019-02-17T10:17:28.459Z,1015.25
2019-02-17T10:18:28.442Z,1015.23
2019-02-17T10:19:28.399Z,1015.17
2019-02-17T10:20:28.374Z,1015.40
2019-02-17T10:21:28.343Z,1015.32
2019-02-17T10:22:28.312Z,1015.49
2019-02-17T10:23:28.288Z,1015.52
2019-02-17T10:24:28.267Z,1015.49
2019-02-17T10:25:28.251Z,1015.44
2019-02-17T10:26:28.208Z,1015.43
2019-02-17T10:27:28.199Z,1015.28
2019-02-17T10:28:28.164Z,1015.31
2019-02-17T10:29:28.138Z,1015.22
2019-02-17T10:30:28.117Z,1015.21
2019-02-17T10:31:28.092Z,1015.22
2019-02-17T10:32:37.096Z,1015.27
2019-02-17T10:33:28.044Z,1015.23
2019-02-17T10:34:28.016Z,1015.12
2019-02-17T10:35:27.996Z,1015.17
2019-02-17T10:36:27.970Z,1015.11
2019-02-17T10:37:27.949Z,1015.04
2019-02-17T10:38:27.921Z,1015.07
2019-02-17T10:39:27.903Z,1015.02
2019-02-17T10:40:27.873Z,1014.97
2019-02-17T10:41:27.857Z,1014.87
2019-02-17T10:42:27.831Z,1014.81
2019-02-17T10:43:27.812Z,1014.75
2019-02-17T10:44:27.785Z,1014.77
2019-02-17T10:45:27.763Z,1014.78
2019-02-17T10:46:27.748Z,1014.74
2019-02-17T10:47:27.739Z,1014.70
2019-02-17T10:48:27.694Z,1014.69
2019-02-17T10:49:27.672Z,1014.59
2019-02-17T10:50:27.653Z,1014.60
2019-02-17T10:51:27.632Z,1014.45
2019-02-17T10:52:27.611Z,1014.46
2019-02-17T10:53:27.588Z,1014.60
2019-02-17T10:54:27.567Z,1014.43
2019-02-17T10:55:27.549Z,1014.48
2019-02-17T10:56:27.528Z,1014.42
2019-02-17T10:57:27.503Z,1014.38
2019-02-17T10:58:27.485Z,1014.37
2019-02-17T10:59:27.459Z,1014.29
2019-02-17T11:00:27.438Z,1014.09
2019-02-17T11:01:27.414Z,1014.09
2019-02-17T11:02:27.405Z,1014.11
2019-02-17T11:03:27.390Z,1014.03
2019-02-17T11:04:27.375Z,1014.13
2019-02-17T11:05:27.334Z,1014.02
2019-02-17T11:06:27.314Z,1014.01
2019-02-17T11:07:27.286Z,1014.06
2019-02-17T11:08:27.267Z,1013.99
2019-02-17T11:09:27.254Z,1013.94
2019-02-17T11:10:27.234Z,1013.93
2019-02-17T11:11:27.215Z,1013.98
2019-02-17T11:12:27.185Z,1013.94
2019-02-17T11:13:27.173Z,1013.93
2019-02-17T11:14:27.154Z,1013.94
2019-02-17T11:15:27.135Z,1013.99
2019-02-17T11:16:27.115Z,1013.99
2019-02-17T11:17:27.080Z,1013.91
2019-02-17T11:18:27.061Z,1013.92
2019-02-17T11:19:27.048Z,1013.87
2019-02-17T11:20:27.035Z,1013.83
2019-02-17T11:21:27.005Z,1013.92
2019-02-17T11:22:26.989Z,1013.80
2019-02-17T11:23:26.974Z,1013.77
2019-02-17T11:24:26.941Z,1013.58
2019-02-17T11:25:26.924Z,1013.66
2019-02-17T11:26:26.895Z,1013.71
2019-02-17T11:27:26.885Z,1013.68
2019-02-17T11:28:26.869Z,1013.61
2019-02-17T11:29:26.840Z,1013.61
2019-02-17T11:30:26.825Z,1013.57
2019-02-17T11:31:26.795Z,1013.54
2019-02-17T11:32:26.774Z,1013.33
2019-02-17T11:33:26.761Z,1013.32
2019-02-17T11:34:26.739Z,1013.45
2019-02-17T11:35:26.726Z,1013.51
2019-02-17T11:36:26.708Z,1013.49
2019-02-17T11:37:26.756Z,1013.48
2019-02-17T11:38:26.660Z,1013.47
2019-02-17T11:39:26.636Z,1013.36
2019-02-17T11:40:26.624Z,1013.30
2019-02-17T11:41:26.604Z,1013.36
2019-02-17T11:42:26.581Z,1013.34
2019-02-17T11:43:26.563Z,1013.37
2019-02-17T11:44:26.537Z,1013.41
2019-02-17T11:45:26.521Z,1013.38
2019-02-17T11:46:26.505Z,1013.30
2019-02-17T11:47:26.486Z,1013.42
2019-02-17T11:48:26.461Z,1013.34
2019-02-17T11:49:26.447Z,1013.33
2019-02-17T11:50:26.430Z,1013.29
2019-02-17T11:51:26.400Z,1013.30
2019-02-17T11:52:26.387Z,1013.23
2019-02-17T11:53:26.366Z,1013.30
2019-02-17T11:54:26.349Z,1013.27
2019-02-17T11:55:26.335Z,1013.19
2019-02-17T11:56:26.300Z,1013.23
2019-02-17T11:57:26.287Z,1012.94
2019-02-17T11:58:26.276Z,1013.17
2019-02-17T11:59:26.250Z,1013.17
2019-02-17T12:00:26.240Z,1013.12
2019-02-17T12:01:26.207Z,1013.18
2019-02-17T12:02:26.185Z,1013.13
2019-02-17T12:03:26.172Z,1013.04
2019-02-17T12:04:26.148Z,1013.02
2019-02-17T12:05:26.135Z,1012.99